Mc Donald, Pennsylvania
Current Conditions -  °F | °C
As of 4:51 AM on Sunday 25 Jan 2015 (Local Time) from KPIT Reporting Station
Light Snow Light Snow  
Wind Chill: 25°   Ceiling: 800
Heat Index: 33°   Visibility: 5mi
Dew Point: 31°   Wind: 9mph
Humidity: 92%   Direction: 240°WSW
Pressure: 29.73"   Gusts: NA
Location:  40.3662°N, 80.2739°W
Report Text: KPIT 250951Z 24008KT 5SM -SN BR OVC008 01/M01 A2973 RMK AO2 SNE33B49 SLP087 P0000 T00061006
Loading
Personal Weather Stations






























Interactive Weather Map New forecast layout! Learn more

10-Day Weather Forecast

Advertisements
Track Severe Weather on mobile